Blackstock, South Carolina
Current Conditions -  °F | °C
As of 6:35 AM on Saturday 20 Dec 2014 (Local Time) from KDCM Reporting Station
Light Rain Light Rain  
Wind Chill: 40°   Ceiling: 2700
Heat Index: 43°   Visibility: 10mi
Dew Point: 37°   Wind: 5mph
Humidity: 81%   Direction: 30°NNE
Pressure: 30.19"   Gusts: NA
Location:  34.56°N, 81.15°W
Report Text: KDCM 201135Z AUTO 03004KT 10SM -RA BKN027 OVC037 06/03 A3019 RMK AO2
Loading
Personal Weather Stations






























Interactive Weather Map New forecast layout! Learn more

10-Day Weather Forecast

Advertisements
Track Severe Weather on mobile